Historyczne dane pomiarowe

Dodano dane terminowe – wersja testowa.

Dane z okresu 1951-2019

Wersja bazy: 1.34 [2019-03-16, lista zmian], aktualizacja planowana na 2019-04-15

Dane meteo z obszaru Polski uzyskane na podstawie danych udostępnionych przez Instytut Meteorologii i Gospodarki Wodnej – Państwowy Instytut Badawczy.

 

Wybierz Datę:    

       

TemperaturaWilgotnośćWiatrCiśnienieOpadyŚniegCzas trwania zjawisk
 Stacja t tx tn tng RH VA  wxwx mslp ppp RRR   cm mm wxwxwxwxwxwxwx
1999-08-14 13.2 17.2 9.0 6.8 94.0- 7.0 0.3---- 3.7------------
1999-08-13 15.6 21.4 10.0 7.3 87.3- 7.0 0.3---- 0.2------------
1999-08-12 16.8 20.5 13.4 11.5 83.3- 6.0 1.0---- 0.0------------
1999-08-11 18.8 23.7 16.0 14.8 88.5- 6.0 1.3---- 4.7------------
1999-08-10 21.0 27.9 15.5 12.2 83.0- 4.7 0.7---- 27.0------------
1999-08-09 19.6 29.3 11.8 11.8 90.3- 4.0 1.0---- 17.3------------
1999-08-08 18.8 27.4 11.2 8.8 83.8- 7.7 1.0---- 15.0------------
1999-08-07 19.7 27.6 10.8 7.6 73.8- 4.0 0.3---- 0.0------------
1999-08-06 18.6 26.9 9.8 7.2 70.3- 4.7 1.0---- 0.0------------
1999-08-05 18.4 26.6 9.3 6.3 69.0- 2.3 0.3---- 0.0------------
1999-08-04 17.5 24.4 8.0 5.7 74.5- 6.0 0.3---- 0.0------------
1999-08-03 15.8 24.5 7.4 4.3 76.8- 6.3 0.3---- 0.0------------
1999-08-02 17.2 25.1 7.3 3.9 61.0- 4.3 1.0---- 0.0------------
1999-08-01 17.8 24.3 9.4 6.6 65.3- 6.3 1.0---- 0.0------------
1999-07-31 17.9 25.9 8.4 5.8 64.3- 1.7 1.7---- 0.0------------
1999-07-30 18.0 24.9 9.7 6.3 63.5- 3.7 1.0---- 0.0------------
1999-07-29 17.8 24.7 11.7 9.6 68.0- 5.7 1.3---- 0.0------------
1999-07-28 17.8 22.2 13.7 10.4 87.0- 7.7 1.3---- 3.6------------
1999-07-27 19.5 24.3 15.1 12.2 78.3- 6.7 1.0---- 0.0------------
1999-07-26 20.6 28.1 12.4 9.8 73.3- 2.0 0.3---- 0.0------------
1999-07-25 18.6 25.2 10.3 8.8 69.5- 1.7 1.7---- 0.0------------
1999-07-24 18.7 23.9 13.4 11.8 76.3- 2.7 1.0---- 0.0------------
1999-07-23 15.8 21.4 10.0 7.8 88.0- 7.7 0.7---- 1.1------------
1999-07-22 20.1 25.4 15.5 12.5 72.5- 5.0 0.7---- 0.0------------
1999-07-21 21.4 29.5 11.3 8.8 69.5- 2.7 1.0---- 0.0------------
1999-07-20 21.1 26.9 12.9 10.0 66.5- 0.7 1.0---- 0.0------------
1999-07-19 19.7 26.9 11.3 9.6 74.3- 4.7 1.0---- 0.0------------
1999-07-18 17.8 24.4 9.8 7.8 75.3- 4.0 0.7---- 0.0------------
1999-07-17 16.9 22.9 7.9 5.9 73.3- 2.3 0.3---- 0.0------------
1999-07-16 15.9 20.9 11.8 10.8 84.3- 5.3 1.3---- 0.7------------
1999-07-15 16.9 19.4 14.4 14.2 93.5- 8.0 1.3---- 6.7------------
1999-07-14 20.4 26.0 15.5 12.2 80.0- 6.3 1.7---- 25.2------------
1999-07-13 22.3 29.4 12.9 9.9 59.0- 5.0 0.7---- 0.0------------
1999-07-12 21.1 28.4 10.8 8.3 63.0- 3.7 1.0---- 0.0------------
1999-07-11 20.0 27.4 9.1 6.4 57.0- 0.3 1.0---- 0.0------------
1999-07-10 19.7 24.9 12.4 8.4 57.0- 1.0 3.0---- 0.0------------
1999-07-09 20.6 25.8 16.4 16.0 79.5- 5.3 1.0---- 0.3------------
1999-07-08 20.9 24.9 16.8 14.3 80.8- 7.3 2.0---- 0.0------------
1999-07-07 23.7 29.5 17.7 15.3 73.3- 5.0 2.0---- 0.0------------
1999-07-06 25.8 32.3 18.6 13.4 65.8- 4.0 0.7---- 0.0------------
1999-07-05 25.3 31.4 18.9 14.0 68.3- 1.3 0.3---- 0.0------------
1999-07-04 22.4 28.5 13.6 10.3 70.8- 0.7 1.3---- 0.0------------
1999-07-03 19.5 24.9 12.9 9.3 73.3- 1.0 0.7---- 0.0------------
1999-07-02 20.1 25.3 16.5 15.2 84.5- 6.0 0.3---- 0.0------------
1999-07-01 20.9 27.6 12.4 9.6 71.8- 5.0 0.3---- 3.6------------
1999-06-30 19.3 24.9 12.4 9.3 72.8- 2.7 0.3---- 0.0------------
1999-06-29 21.1 26.4 14.1 11.6 72.0- 3.7 0.7---- 0.0------------
1999-06-28 21.4 29.1 9.8 7.3 76.8- 3.7 0.3---- 0.0------------
1999-06-27 18.4 25.5 7.1 4.8 67.3- 1.7 0.3---- 0.0------------
1999-06-26 15.0 21.9 4.4 2.5 69.8- 2.7 0.3---- 0.0------------
1999-06-25 12.3 14.1 10.3 10.0 91.0- 7.3 2.0---- 0.3------------
1999-06-24 12.3 13.9 11.2 11.2 92.5- 8.0 1.7---- 4.0------------
1999-06-23 16.8 21.1 13.8 13.0 91.0- 8.0 1.3---- 4.8------------
1999-06-22 19.1 25.9 13.9 12.1 87.0- 6.7 1.3---- 1.0------------
1999-06-21 19.4 23.8 15.5 13.0 91.5- 7.3 0.3---- 10.0------------
1999-06-20 20.7 26.1 12.5 10.3 88.3- 5.7 0.3---- 4.3------------
1999-06-19 20.9 28.3 13.9 10.8 89.0- 5.3 0.7---- 11.8------------
1999-06-18 20.7 25.5 15.5 13.2 92.5- 6.0 0.3---- 4.4------------
1999-06-17 19.8 25.1 16.7 14.3 88.3- 5.3 0.7---- 17.5------------
1999-06-16 21.3 27.7 14.5 11.2 75.0- 6.3 1.0---- 2.3------------
371.5 ms

 

Źródłem pochodzenia danych jest Instytut Meteorologii i Gospodarki Wodnej – Państwowy Instytut Badawczy. Dane Instytutu Meteorologii i Gospodarki Wodnej – Państwowego Instytutu Badawczego zostały przetworzone.

Dane źródłowe można odnaleźć na stronie https://dane.imgw.pl